Time;durP1;ratioP1;P1;durP2;ratioP2;P2;SDS_P1;SDS_P2;PMS_P1;PMS_P2;Temp;Humidity;BMP_temperature;BMP_pressure;BME280_temperature;BME280_humidity;BME280_pressure;Samples;Min_cycle;Max_cycle;Signal;HPM_P1;HPM_P2
2022/05/29 00:03:26;;;;;;;;;;;;;;;10.39;66.99;99207.97;7892301;29;19930;-71
2022/05/29 00:07:27;;;;;;;;;;;;;;;10.39;66.89;99197.59;7898415;30;20653;-71
2022/05/29 00:11:28;;;;;;;;;;;;;;;10.47;65.13;99203.59;7884996;30;19930;-71
2022/05/29 00:15:30;;;;;;;;;;;;;;;10.51;64.46;99194.91;7896229;29;19929;-71
2022/05/29 00:19:31;;;;;;;;;;;;;;;10.53;63.56;99181.03;7900316;29;20021;-71
2022/05/29 00:23:37;;;;;;;;;;;;;;;10.51;64.41;99185.41;7898133;30;19929;-71
2022/05/29 00:27:38;;;;;;;;;;;;;;;10.38;62.53;99188.06;7899677;30;19929;-71
2022/05/29 00:31:40;;;;;;;;;;;;;;;10.27;62.67;99188.16;7899755;29;20768;-71
2022/05/29 00:35:42;;;;;;;;;;;;;;;10.19;63.92;99180.38;7900007;30;19943;-71
2022/05/29 00:39:44;;;;;;;;;;;;;;;10.21;64.17;99180.41;7898989;29;20372;-71
2022/05/29 00:44:04;;;;;;;;;;;;;;;10.27;64.00;99178.66;7902524;30;20425;-72
2022/05/29 00:48:06;;;;;;;;;;;;;;;10.27;65.22;99170.88;7897898;30;20221;-71
2022/05/29 00:52:11;;;;;;;;;;;;;;;10.19;65.71;99171.75;7902787;30;19930;-71
2022/05/29 00:56:12;;;;;;;;;;;;;;;10.10;65.46;99167.47;7906974;29;20418;-71
2022/05/29 01:00:16;;;;;;;;;;;;;;;10.10;63.48;99166.63;7899449;30;19940;-71
2022/05/29 01:04:17;;;;;;;;;;;;;;;10.05;63.87;99156.25;7897102;29;19934;-71
2022/05/29 01:08:21;;;;;;;;;;;;;;;10.02;65.27;99155.41;7903005;30;19968;-72
2022/05/29 01:12:25;;;;;;;;;;;;;;;10.05;66.35;99158.84;7895566;29;19934;-71
2022/05/29 01:16:30;;;;;;;;;;;;;;;10.07;67.71;99157.13;7908702;29;19944;-71
2022/05/29 01:20:38;;;;;;;;;;;;;;;10.03;68.13;99159.72;7899875;30;19929;-71
2022/05/29 01:24:43;;;;;;;;;;;;;;;10.04;68.46;99158.84;7896494;29;20021;-71
2022/05/29 01:29:10;;;;;;;;;;;;;;;10.10;67.57;99153.66;7896249;30;19960;-71
2022/05/29 01:33:25;;;;;;;;;;;;;;;10.11;68.79;99150.19;7895458;29;19930;-71
2022/05/29 01:37:29;;;;;;;;;;;;;;;10.12;69.52;99151.91;7900904;30;20065;-71
2022/05/29 01:41:36;;;;;;;;;;;;;;;10.08;69.93;99145.88;7901043;30;19925;-71
2022/05/29 01:45:55;;;;;;;;;;;;;;;10.03;69.73;99147.63;7899638;29;19929;-71
2022/05/29 01:50:01;;;;;;;;;;;;;;;9.99;68.67;99149.38;7902193;30;20395;-71
2022/05/29 01:54:21;;;;;;;;;;;;;;;9.98;68.61;99149.38;7897364;30;19972;-71
2022/05/29 01:58:26;;;;;;;;;;;;;;;9.99;69.30;99145.94;7900709;30;20343;-72
2022/05/29 02:02:31;;;;;;;;;;;;;;;9.98;69.49;99133.81;7897752;29;20009;-72
2022/05/29 02:11:07;;;;;;;;;;;;;;;9.92;69.69;99132.16;7904322;29;19936;-72
2022/05/29 02:15:11;;;;;;;;;;;;;;;9.95;69.29;99139.03;7899079;30;20609;-71
2022/05/29 02:19:16;;;;;;;;;;;;;;;9.95;68.20;99132.13;7898970;29;19933;-72
2022/05/29 02:23:28;;;;;;;;;;;;;;;9.96;67.85;99128.66;7905317;30;19929;-72
2022/05/29 02:27:50;;;;;;;;;;;;;;;9.98;67.14;99126.03;7901729;29;19929;-72
2022/05/29 02:32:04;;;;;;;;;;;;;;;9.85;67.24;99124.38;7900349;29;20036;-72
2022/05/29 02:36:24;;;;;;;;;;;;;;;9.75;67.20;99117.56;7900274;30;19929;-72
2022/05/29 02:40:26;;;;;;;;;;;;;;;9.71;66.72;99108.94;7902497;30;19951;-72
2022/05/29 02:44:33;;;;;;;;;;;;;;;9.67;66.70;99110.66;7903163;30;20344;-72
2022/05/29 02:48:43;;;;;;;;;;;;;;;9.58;68.55;99104.69;7903323;30;19950;-72
2022/05/29 02:52:45;;;;;;;;;;;;;;;9.52;68.80;99104.72;7903708;29;19937;-72
2022/05/29 02:56:46;;;;;;;;;;;;;;;9.52;69.80;99104.72;7902473;30;19930;-72
2022/05/29 03:01:10;;;;;;;;;;;;;;;9.55;70.06;99099.50;7898531;29;20573;-72
2022/05/29 03:05:37;;;;;;;;;;;;;;;9.52;69.19;99097.81;7906218;30;19940;-72
2022/05/29 03:09:52;;;;;;;;;;;;;;;9.47;69.01;99098.66;7904086;30;19930;-71
2022/05/29 03:14:05;;;;;;;;;;;;;;;9.29;68.96;99100.47;7905007;29;20016;-72
2022/05/29 03:18:25;;;;;;;;;;;;;;;9.24;68.58;99115.19;7906409;29;20033;-72
2022/05/29 03:22:29;;;;;;;;;;;;;;;9.28;68.56;99113.44;7905768;30;19929;-72
2022/05/29 03:26:51;;;;;;;;;;;;;;;9.31;68.84;99113.41;7904147;30;19969;-72
2022/05/29 03:30:54;;;;;;;;;;;;;;;9.36;68.69;99109.97;7903300;29;20032;-72
2022/05/29 03:34:55;;;;;;;;;;;;;;;9.37;68.28;99103.06;7898724;30;19929;-71
2022/05/29 03:38:57;;;;;;;;;;;;;;;9.33;68.59;99101.31;7918316;29;19936;-73
2022/05/29 03:42:58;;;;;;;;;;;;;;;9.32;68.83;99094.41;7906538;30;19936;-72
2022/05/29 03:47:00;;;;;;;;;;;;;;;9.35;69.75;99099.59;7897894;29;20248;-72
2022/05/29 03:51:06;;;;;;;;;;;;;;;9.37;69.88;99098.72;7897467;30;19972;-72
2022/05/29 03:55:07;;;;;;;;;;;;;;;9.36;69.35;99102.19;7904389;30;19965;-72
2022/05/29 03:59:09;;;;;;;;;;;;;;;9.32;68.89;99095.28;7908103;30;19975;-72
2022/05/29 04:03:10;;;;;;;;;;;;;;;9.27;70.00;99107.41;7898695;29;19976;-73
2022/05/29 04:07:12;;;;;;;;;;;;;;;9.32;69.75;99102.19;7902141;30;19930;-72
2022/05/29 04:15:34;;;;;;;;;;;;;;;9.49;69.80;99108.16;7901113;29;19933;-73
2022/05/29 04:19:36;;;;;;;;;;;;;;;9.54;69.16;99115.94;7900773;30;19929;-73
2022/05/29 04:23:37;;;;;;;;;;;;;;;9.55;69.15;99113.34;7901504;29;19967;-72
2022/05/29 04:27:39;;;;;;;;;;;;;;;9.54;69.03;99106.44;7903156;30;19940;-73
2022/05/29 04:32:59;;;;;;;;;;;;;;;9.63;69.00;99102.91;7897396;29;19933;-73
2022/05/29 04:36:07;;;;;;;;;;;;;;;9.71;68.89;99103.75;7903330;29;19935;-72
2022/05/29 04:40:09;;;;;;;;;;;;;;;9.75;68.11;99104.59;7905276;30;19978;-72
2022/05/29 04:44:10;;;;;;;;;;;;;;;9.74;68.55;99100.28;7901042;29;19925;-72
2022/05/29 04:48:13;;;;;;;;;;;;;;;9.73;68.39;99096.81;7895849;29;19945;-72
2022/05/29 04:52:14;;;;;;;;;;;;;;;9.74;69.70;99108.06;7902836;29;19933;-72
2022/05/29 04:56:16;;;;;;;;;;;;;;;9.74;69.56;99103.72;7900022;30;19929;-71
2022/05/29 05:00:17;;;;;;;;;;;;;;;9.84;67.84;99104.53;7899485;30;19969;-72
2022/05/29 05:04:20;;;;;;;;;;;;;;;9.92;69.28;99102.75;7903322;29;20332;-72
2022/05/29 05:08:21;;;;;;;;;;;;;;;9.94;68.47;99109.66;7900263;29;20076;-73
2022/05/29 05:12:23;;;;;;;;;;;;;;;9.91;68.00;99101.91;7903094;29;19933;-72
2022/05/29 05:16:25;;;;;;;;;;;;;;;9.91;69.41;99114.84;7894355;30;19929;-74
2022/05/29 05:20:26;;;;;;;;;;;;;;;9.84;70.81;99113.16;7898515;29;19934;-71
2022/05/29 05:24:27;;;;;;;;;;;;;;;9.75;72.82;99108.03;7904495;29;20575;-73
2022/05/29 05:28:29;;;;;;;;;;;;;;;9.62;74.91;99108.97;7905283;29;20030;-73
2022/05/29 05:32:30;;;;;;;;;;;;;;;9.60;75.40;99119.34;7901402;29;20336;-74
2022/05/29 05:36:31;;;;;;;;;;;;;;;9.59;75.49;99121.94;7896317;30;19930;-74
2022/05/29 05:40:33;;;;;;;;;;;;;;;9.64;76.00;99115.88;7899333;30;19935;-74
2022/05/29 05:44:35;;;;;;;;;;;;;;;9.73;76.84;99117.56;7893695;30;19934;-74
2022/05/29 05:48:38;;;;;;;;;;;;;;;9.81;76.28;99108.00;7894126;29;19930;-74
2022/05/29 05:52:39;;;;;;;;;;;;;;;9.88;76.57;99121.81;7900488;29;19930;-74
2022/05/29 05:56:41;;;;;;;;;;;;;;;10.26;76.74;99117.25;7902678;30;19964;-74
2022/05/29 06:00:44;;;;;;;;;;;;;;;11.02;74.82;99117.41;7900714;29;20334;-73
2022/05/29 06:04:46;;;;;;;;;;;;;;;11.18;73.51;99116.38;7904721;29;20044;-73
2022/05/29 06:08:47;;;;;;;;;;;;;;;11.56;71.63;99112.44;7903525;30;19929;-73
2022/05/29 06:12:49;;;;;;;;;;;;;;;11.24;73.21;99118.91;7917714;29;19936;-74
2022/05/29 06:16:51;;;;;;;;;;;;;;;11.16;70.93;99125.94;7898586;29;19976;-74
2022/05/29 06:20:57;;;;;;;;;;;;;;;12.66;66.94;99124.69;7916617;29;20328;-74
2022/05/29 06:24:58;;;;;;;;;;;;;;;13.64;62.25;99117.63;7902451;30;19936;-75
2022/05/29 06:29:00;;;;;;;;;;;;;;;14.18;60.20;99126.88;7914536;29;19929;-74
2022/05/29 06:33:02;;;;;;;;;;;;;;;14.45;57.31;99117.53;7893998;30;19933;-75
2022/05/29 06:37:07;;;;;;;;;;;;;;;14.26;57.65;99121.47;7904986;30;20283;-74
2022/05/29 06:41:09;;;;;;;;;;;;;;;14.45;57.97;99122.78;7903717;30;20086;-74
2022/05/29 06:45:11;;;;;;;;;;;;;;;14.56;56.87;99116.44;7898580;30;19930;-76
2022/05/29 06:49:13;;;;;;;;;;;;;;;14.54;55.27;99113.84;7905319;30;20596;-76
2022/05/29 06:53:15;;;;;;;;;;;;;;;14.37;55.18;99116.00;7896922;29;20039;-76
2022/05/29 06:57:36;;;;;;;;;;;;;;;14.93;55.67;99116.34;7896811;30;19929;-76
2022/05/29 07:10:17;;;;;;;;;;;;;;;15.68;54.52;99107.28;7897159;30;20342;-75
2022/05/29 07:14:19;;;;;;;;;;;;;;;15.57;53.86;99104.94;7892974;30;19937;-75
2022/05/29 07:18:20;;;;;;;;;;;;;;;15.33;52.43;99111.75;7887609;30;20048;-74
2022/05/29 07:22:22;;;;;;;;;;;;;;;15.23;51.84;99110.25;7895048;30;20387;-75
2022/05/29 07:26:23;;;;;;;;;;;;;;;14.63;52.00;99111.00;7920341;29;19930;-75
2022/05/29 07:30:25;;;;;;;;;;;;;;;14.66;54.13;99110.06;7891335;30;20244;-73
2022/05/29 07:34:27;;;;;;;;;;;;;;;14.74;54.42;99113.34;7906801;30;21155;-73
2022/05/29 07:38:29;;;;;;;;;;;;;;;15.48;52.70;99101.75;7894550;30;20729;-74
2022/05/29 07:46:51;;;;;;;;;;;;;;;16.70;48.79;99097.97;7911928;29;19987;-73
2022/05/29 07:50:52;;;;;;;;;;;;;;;16.21;47.89;99102.16;7881601;30;20030;-73
2022/05/29 07:54:54;;;;;;;;;;;;;;;15.76;49.16;99105.28;7897847;30;19933;-73
2022/05/29 07:58:55;;;;;;;;;;;;;;;15.47;49.64;99105.25;7901010;30;19936;-73
2022/05/29 08:02:57;;;;;;;;;;;;;;;14.98;50.47;99110.09;7897667;30;19961;-73
2022/05/29 08:06:58;;;;;;;;;;;;;;;14.62;51.79;99104.06;7901824;30;19933;-73
2022/05/29 08:11:01;;;;;;;;;;;;;;;14.26;52.04;99108.41;7900433;30;20095;-73
2022/05/29 08:15:02;;;;;;;;;;;;;;;14.13;52.38;99104.34;7903707;30;20299;-73
2022/05/29 08:19:04;;;;;;;;;;;;;;;14.30;52.20;99094.38;7899408;30;19944;-73
2022/05/29 08:23:06;;;;;;;;;;;;;;;14.96;50.87;99093.59;7898018;29;20606;-73
2022/05/29 08:31:33;;;;;;;;;;;;;;;14.70;52.45;99093.41;7898400;30;20282;-73
2022/05/29 08:35:35;;;;;;;;;;;;;;;14.44;51.98;99091.47;7902789;29;19976;-73
2022/05/29 08:39:37;;;;;;;;;;;;;;;14.17;50.93;99091.19;7899141;29;19929;-72
2022/05/29 08:43:46;;;;;;;;;;;;;;;14.88;52.18;99089.44;7898400;29;20023;-72
2022/05/29 08:47:49;;;;;;;;;;;;;;;15.80;51.16;99085.97;7895471;30;19965;-72
2022/05/29 08:52:05;;;;;;;;;;;;;;;16.43;46.15;99087.44;7902369;30;19997;-73
2022/05/29 08:56:13;;;;;;;;;;;;;;;17.00;43.31;99089.03;7897765;29;20569;-73
2022/05/29 09:00:20;;;;;;;;;;;;;;;17.50;43.02;99081.94;7899064;30;20242;-73
2022/05/29 09:04:28;;;;;;;;;;;;;;;17.99;41.29;99072.22;7898969;30;19940;-73
2022/05/29 09:08:36;;;;;;;;;;;;;;;18.18;41.28;99067.06;7898719;30;19933;-73
2022/05/29 09:12:41;;;;;;;;;;;;;;;18.19;40.08;99066.16;7897749;30;19975;-73
2022/05/29 09:16:44;;;;;;;;;;;;;;;18.10;38.51;99067.38;7904513;30;19940;-73
2022/05/29 09:20:58;;;;;;;;;;;;;;;17.83;38.10;99070.25;7885163;30;19929;-73
2022/05/29 09:25:21;;;;;;;;;;;;;;;17.36;39.04;99065.84;7896418;30;20306;-75
2022/05/29 09:29:22;;;;;;;;;;;;;;;16.83;39.01;99067.78;7902035;30;20037;-75
2022/05/29 09:33:25;;;;;;;;;;;;;;;16.48;41.43;99067.19;7912202;29;19933;-75
2022/05/29 09:37:36;;;;;;;;;;;;;;;16.24;41.79;99066.22;7899476;29;19940;-75
2022/05/29 09:41:43;;;;;;;;;;;;;;;16.18;42.92;99065.59;7900867;29;20646;-73
2022/05/29 09:45:45;;;;;;;;;;;;;;;16.21;42.77;99068.09;7903047;30;20361;-75
2022/05/29 09:50:02;;;;;;;;;;;;;;;16.17;41.05;99069.97;7901703;29;19926;-75
2022/05/29 09:54:05;;;;;;;;;;;;;;;16.11;43.04;99071.91;7907466;29;20490;-75
2022/05/29 09:58:09;;;;;;;;;;;;;;;16.01;41.86;99059.13;7899604;29;19929;-75
2022/05/29 10:02:18;;;;;;;;;;;;;;;16.06;39.66;99053.72;7894235;30;19929;-75
2022/05/29 10:06:31;;;;;;;;;;;;;;;16.56;41.80;99051.22;7893751;30;19979;-75
2022/05/29 10:10:34;;;;;;;;;;;;;;;17.30;40.98;99052.09;7896009;29;19961;-75
2022/05/29 10:14:35;;;;;;;;;;;;;;;17.98;40.39;99046.84;7899811;29;19933;-76
2022/05/29 10:18:38;;;;;;;;;;;;;;;18.47;36.03;99052.72;7898595;29;19972;-75
2022/05/29 10:22:41;;;;;;;;;;;;;;;18.46;34.64;99037.00;7914755;29;19936;-76
2022/05/29 10:26:48;;;;;;;;;;;;;;;18.87;33.75;99030.03;7898099;30;19949;-76
2022/05/29 10:30:55;;;;;;;;;;;;;;;18.79;33.63;99037.38;7912065;29;20423;-76
2022/05/29 10:35:15;;;;;;;;;;;;;;;19.18;34.73;99018.97;7904775;29;20327;-76
2022/05/29 10:39:22;;;;;;;;;;;;;;;19.42;32.10;99023.13;7878260;30;20032;-76
2022/05/29 10:43:35;;;;;;;;;;;;;;;19.60;35.50;99022.28;7899326;30;19940;-77
2022/05/29 10:47:41;;;;;;;;;;;;;;;19.18;34.75;99024.22;7895410;30;19964;-75
2022/05/29 10:52:01;;;;;;;;;;;;;;;18.87;34.96;99025.63;7898040;30;19930;-74
2022/05/29 10:56:12;;;;;;;;;;;;;;;19.10;32.17;99014.06;7894446;30;19929;-74
2022/05/29 11:00:19;;;;;;;;;;;;;;;19.15;32.41;99024.38;7899698;30;20736;-74
2022/05/29 11:04:30;;;;;;;;;;;;;;;19.40;33.09;99024.97;7888643;30;20029;-74
2022/05/29 11:08:50;;;;;;;;;;;;;;;19.25;30.21;99013.38;7890442;30;19941;-74
2022/05/29 11:13:04;;;;;;;;;;;;;;;19.58;31.86;99000.44;7881708;29;19997;-74
2022/05/29 11:17:05;;;;;;;;;;;;;;;19.87;32.84;98999.03;7882770;30;19933;-74
2022/05/29 11:21:22;;;;;;;;;;;;;;;20.11;32.81;98991.72;7893760;30;20351;-74
2022/05/29 11:25:36;;;;;;;;;;;;;;;20.34;31.29;98981.81;7891507;30;19949;-74
2022/05/29 11:29:43;;;;;;;;;;;;;;;20.55;30.23;98979.88;7900869;29;19929;-74
2022/05/29 11:34:01;;;;;;;;;;;;;;;20.43;27.96;98970.81;7910031;29;19940;-74
2022/05/29 11:38:14;;;;;;;;;;;;;;;19.97;28.92;98965.19;7891855;30;19969;-74
2022/05/29 11:42:19;;;;;;;;;;;;;;;20.25;30.31;98961.16;7896276;30;20343;-74
2022/05/29 11:55:12;;;;;;;;;;;;;;;20.12;29.52;98950.41;7894790;30;20020;-74
2022/05/29 11:59:22;;;;;;;;;;;;;;;20.16;29.27;98946.66;7899145;30;20590;-74
2022/05/29 12:03:27;;;;;;;;;;;;;;;20.08;28.47;98952.31;7898524;30;19930;-73
2022/05/29 12:07:33;;;;;;;;;;;;;;;19.48;29.76;98943.81;7900304;29;20375;-73
2022/05/29 12:11:44;;;;;;;;;;;;;;;19.17;30.29;98941.78;7898914;30;19953;-73
2022/05/29 12:15:48;;;;;;;;;;;;;;;19.30;29.38;98931.53;7899163;29;19972;-72
2022/05/29 12:19:56;;;;;;;;;;;;;;;19.89;29.62;98939.19;7911068;29;20028;-73
2022/05/29 12:24:00;;;;;;;;;;;;;;;20.06;29.69;98925.19;7919047;29;19930;-73
2022/05/29 12:28:03;;;;;;;;;;;;;;;20.52;30.68;98915.81;7904397;29;20491;-73
2022/05/29 12:32:08;;;;;;;;;;;;;;;20.77;29.55;98923.25;7904119;30;20024;-73
2022/05/29 12:36:18;;;;;;;;;;;;;;;21.04;28.47;98910.38;7884044;30;19975;-73
2022/05/29 12:40:34;;;;;;;;;;;;;;;20.57;28.51;98923.47;7896348;30;20617;-73
2022/05/29 12:44:54;;;;;;;;;;;;;;;19.98;27.44;98922.09;7911722;29;19934;-73
2022/05/29 12:48:55;;;;;;;;;;;;;;;19.51;29.89;98921.75;7906530;29;19934;-73
2022/05/29 12:53:16;;;;;;;;;;;;;;;19.78;29.58;98909.91;7894215;30;19984;-73
2022/05/29 12:57:20;;;;;;;;;;;;;;;20.10;28.14;98908.28;7891727;30;20695;-73
2022/05/29 13:01:41;;;;;;;;;;;;;;;20.59;28.97;98908.41;7893751;30;20022;-73
2022/05/29 13:05:48;;;;;;;;;;;;;;;21.02;28.43;98906.13;7899915;29;20351;-73
2022/05/29 13:10:09;;;;;;;;;;;;;;;21.13;28.72;98911.63;7894936;30;19933;-74
2022/05/29 13:14:14;;;;;;;;;;;;;;;21.19;28.13;98905.19;7877352;30;20016;-73
2022/05/29 13:22:45;;;;;;;;;;;;;;;20.64;30.38;98908.16;7895394;29;19933;-73
2022/05/29 13:27:06;;;;;;;;;;;;;;;20.73;29.36;98900.63;7892407;30;19955;-73
2022/05/29 13:31:09;;;;;;;;;;;;;;;21.24;31.54;98890.81;7897613;30;19937;-73
2022/05/29 13:35:10;;;;;;;;;;;;;;;21.32;28.84;98904.44;7897705;29;20033;-73
2022/05/29 13:39:23;;;;;;;;;;;;;;;21.55;29.29;98894.38;7900473;30;20610;-73
2022/05/29 13:43:27;;;;;;;;;;;;;;;21.64;27.54;98883.25;7891751;30;20028;-73
2022/05/29 13:47:36;;;;;;;;;;;;;;;21.26;28.01;98888.94;7897597;29;20342;-73
2022/05/29 13:51:42;;;;;;;;;;;;;;;20.56;29.15;98892.75;7897877;30;19945;-73
2022/05/29 13:55:43;;;;;;;;;;;;;;;20.00;30.15;98891.25;7895877;29;19944;-73
2022/05/29 14:04:14;;;;;;;;;;;;;;;19.80;31.82;98879.06;7892033;29;19965;-73
2022/05/29 14:08:47;;;;;;;;;;;;;;;19.99;30.31;98871.09;7896556;30;20002;-73
2022/05/29 14:13:09;;;;;;;;;;;;;;;20.13;29.31;98855.41;7874929;30;19964;-73
2022/05/29 14:17:10;;;;;;;;;;;;;;;20.43;30.60;98846.84;7891248;30;19929;-73
2022/05/29 14:21:11;;;;;;;;;;;;;;;20.59;29.68;98853.00;7896994;30;20335;-73
2022/05/29 14:25:33;;;;;;;;;;;;;;;20.59;28.96;98852.16;7897519;30;19930;-73
2022/05/29 14:29:37;;;;;;;;;;;;;;;20.84;30.43;98852.53;7890805;30;20087;-73
2022/05/29 14:33:51;;;;;;;;;;;;;;;20.97;29.14;98847.41;7890471;29;19929;-74
2022/05/29 14:38:27;;;;;;;;;;;;;;;21.09;29.79;98837.03;7894392;30;20247;-73
2022/05/29 14:42:33;;;;;;;;;;;;;;;21.18;30.20;98840.09;7888930;30;19940;-73
2022/05/29 14:46:50;;;;;;;;;;;;;;;21.13;30.40;98840.34;7893878;29;19930;-73
2022/05/29 14:50:57;;;;;;;;;;;;;;;21.04;30.77;98848.81;7897566;30;20547;-73
2022/05/29 14:55:06;;;;;;;;;;;;;;;21.04;32.38;98841.72;7892042;30;19930;-73
2022/05/29 14:59:15;;;;;;;;;;;;;;;21.02;32.27;98850.69;7896294;30;19966;-73
2022/05/29 15:03:23;;;;;;;;;;;;;;;20.96;32.56;98851.00;7895372;30;19944;-74
2022/05/29 15:11:45;;;;;;;;;;;;;;;20.95;32.83;98849.28;7895096;30;19986;-73
2022/05/29 15:15:51;;;;;;;;;;;;;;;20.69;31.61;98843.69;7892687;30;19984;-73
2022/05/29 15:24:19;;;;;;;;;;;;;;;20.28;32.30;98851.09;7896839;30;20350;-73
2022/05/29 15:28:21;;;;;;;;;;;;;;;19.78;34.70;98851.09;7889175;30;20347;-73
2022/05/29 15:32:25;;;;;;;;;;;;;;;19.46;35.34;98839.50;7884440;30;20008;-72
2022/05/29 15:36:33;;;;;;;;;;;;;;;19.13;35.67;98834.94;7914715;29;19934;-72
2022/05/29 15:40:52;;;;;;;;;;;;;;;19.10;36.01;98828.97;7894717;29;19968;-72
2022/05/29 15:45:02;;;;;;;;;;;;;;;19.28;35.82;98828.09;7892340;30;20056;-72
2022/05/29 15:49:10;;;;;;;;;;;;;;;19.61;36.06;98820.34;7894205;29;20016;-72
2022/05/29 15:53:30;;;;;;;;;;;;;;;19.98;33.69;98815.81;7889883;30;20379;-72
2022/05/29 15:57:41;;;;;;;;;;;;;;;20.18;30.88;98810.34;7889994;30;20040;-72
2022/05/29 16:01:52;;;;;;;;;;;;;;;20.15;31.70;98811.38;7891047;30;19934;-72
2022/05/29 16:06:09;;;;;;;;;;;;;;;19.74;31.84;98815.28;7899834;29;19941;-72
2022/05/29 16:10:17;;;;;;;;;;;;;;;19.12;32.11;98812.19;7896910;29;19940;-72
2022/05/29 16:14:35;;;;;;;;;;;;;;;18.90;34.23;98811.50;7903288;30;20732;-72
2022/05/29 16:18:59;;;;;;;;;;;;;;;18.68;34.07;98809.91;7896027;30;20419;-72
2022/05/29 16:23:03;;;;;;;;;;;;;;;18.70;33.33;98807.19;7896732;30;20020;-72
2022/05/29 16:27:23;;;;;;;;;;;;;;;19.01;33.39;98802.16;7891087;30;20035;-72
2022/05/29 16:31:47;;;;;;;;;;;;;;;19.21;33.29;98795.97;7904168;30;19972;-72
2022/05/29 16:35:57;;;;;;;;;;;;;;;19.21;34.37;98795.97;7895835;30;20032;-72
2022/05/29 16:48:51;;;;;;;;;;;;;;;18.59;34.98;98776.09;7896997;30;19929;-72
2022/05/29 16:53:00;;;;;;;;;;;;;;;18.33;36.12;98781.72;7894448;30;20248;-72
2022/05/29 16:57:20;;;;;;;;;;;;;;;18.01;35.51;98768.25;7894522;30;20554;-71
2022/05/29 17:01:24;;;;;;;;;;;;;;;17.94;36.85;98773.81;7894518;29;19969;-72
2022/05/29 17:05:32;;;;;;;;;;;;;;;17.80;36.83;98763.94;7894768;30;20018;-71
2022/05/29 17:09:49;;;;;;;;;;;;;;;17.64;36.98;98768.13;7894273;30;19936;-71
2022/05/29 17:13:51;;;;;;;;;;;;;;;17.59;36.63;98759.56;7893329;30;20013;-72
2022/05/29 17:17:53;;;;;;;;;;;;;;;17.50;37.86;98763.44;7893142;30;20040;-72
2022/05/29 17:22:01;;;;;;;;;;;;;;;17.46;37.71;98767.97;7894958;30;19979;-71
2022/05/29 17:26:14;;;;;;;;;;;;;;;17.30;37.17;98758.19;7898711;30;19961;-70
2022/05/29 17:30:18;;;;;;;;;;;;;;;17.16;37.11;98759.59;7905484;29;20651;-72
2022/05/29 17:34:21;;;;;;;;;;;;;;;16.98;37.06;98760.34;7892366;30;19999;-71
2022/05/29 17:38:24;;;;;;;;;;;;;;;16.83;37.61;98756.56;7892014;30;20407;-71
2022/05/29 17:42:26;;;;;;;;;;;;;;;16.70;39.04;98759.78;7894176;30;20391;-71
2022/05/29 17:46:43;;;;;;;;;;;;;;;16.59;38.71;98753.13;7907724;29;19949;-71
2022/05/29 17:50:47;;;;;;;;;;;;;;;16.47;39.38;98755.38;7906076;29;19990;-72
2022/05/29 17:54:52;;;;;;;;;;;;;;;16.38;39.17;98758.34;7896931;30;20016;-72
2022/05/29 17:58:54;;;;;;;;;;;;;;;16.25;40.16;98755.34;7898149;30;20028;-72
2022/05/29 18:02:57;;;;;;;;;;;;;;;16.05;40.73;98749.97;7893898;30;19965;-72
2022/05/29 18:06:59;;;;;;;;;;;;;;;15.93;39.98;98752.13;7888755;30;19973;-71
2022/05/29 18:11:08;;;;;;;;;;;;;;;15.75;40.15;98751.94;7890823;30;19942;-71
2022/05/29 18:15:11;;;;;;;;;;;;;;;15.61;41.87;98744.56;7896838;30;20020;-72
2022/05/29 18:19:12;;;;;;;;;;;;;;;15.40;43.16;98747.00;7895347;29;20327;-71
2022/05/29 18:23:14;;;;;;;;;;;;;;;15.16;42.68;98749.59;7876512;30;20027;-71
2022/05/29 18:27:17;;;;;;;;;;;;;;;15.10;42.93;98761.97;7894601;30;19929;-71
2022/05/29 18:31:19;;;;;;;;;;;;;;;15.06;43.23;98756.88;7891110;30;20347;-71
2022/05/29 18:35:21;;;;;;;;;;;;;;;14.99;42.71;98764.06;7891265;30;20393;-72
2022/05/29 18:39:23;;;;;;;;;;;;;;;14.91;43.88;98773.06;7912682;29;19930;-72
2022/05/29 18:43:24;;;;;;;;;;;;;;;14.85;44.36;98778.47;7892993;29;20016;-72
2022/05/29 18:47:27;;;;;;;;;;;;;;;14.80;44.69;98776.00;7894807;30;20651;-71
2022/05/29 18:51:29;;;;;;;;;;;;;;;14.75;45.65;98780.53;7891431;30;19933;-71
2022/05/29 18:55:30;;;;;;;;;;;;;;;14.61;45.61;98791.41;7895246;29;19975;-72
2022/05/29 18:59:35;;;;;;;;;;;;;;;14.51;45.78;98782.97;7891978;30;19939;-72
2022/05/29 19:03:37;;;;;;;;;;;;;;;14.37;47.53;98786.91;7897007;30;19929;-72
2022/05/29 19:07:39;;;;;;;;;;;;;;;14.30;47.53;98785.34;7885719;30;19937;-71
2022/05/29 19:12:08;;;;;;;;;;;;;;;14.10;48.00;98786.78;7888753;29;19933;-71
2022/05/29 19:16:12;;;;;;;;;;;;;;;13.90;49.21;98796.91;7893292;29;19934;-72
2022/05/29 19:20:13;;;;;;;;;;;;;;;13.75;50.41;98800.78;7895078;29;19929;-72
2022/05/29 19:24:16;;;;;;;;;;;;;;;13.67;50.87;98804.50;7887866;30;19969;-71
2022/05/29 19:28:18;;;;;;;;;;;;;;;13.59;50.73;98807.31;7892829;29;19972;-71
2022/05/29 19:32:46;;;;;;;;;;;;;;;13.43;51.17;98814.66;7884652;29;19971;-71
2022/05/29 19:36:47;;;;;;;;;;;;;;;13.26;52.10;98817.69;7892343;30;20433;-71
2022/05/29 19:40:49;;;;;;;;;;;;;;;13.16;51.54;98818.78;7892931;30;19995;-71
2022/05/29 19:44:50;;;;;;;;;;;;;;;13.06;52.75;98826.84;7894451;29;19954;-71
2022/05/29 19:48:52;;;;;;;;;;;;;;;12.96;52.38;98823.63;7899203;29;19929;-71
2022/05/29 19:52:54;;;;;;;;;;;;;;;12.94;52.38;98830.63;7894842;30;20370;-71
2022/05/29 19:56:56;;;;;;;;;;;;;;;12.90;52.29;98831.56;7890756;30;20357;-71
2022/05/29 20:01:09;;;;;;;;;;;;;;;12.90;52.09;98842.84;7887907;30;20636;-71
2022/05/29 20:05:11;;;;;;;;;;;;;;;12.81;53.40;98832.63;7890243;30;19964;-71
2022/05/29 20:09:12;;;;;;;;;;;;;;;12.77;53.03;98850.97;7892479;30;19977;-71
2022/05/29 20:13:14;;;;;;;;;;;;;;;12.67;53.83;98850.31;7896333;30;20602;-70
2022/05/29 20:17:19;;;;;;;;;;;;;;;12.49;55.82;98851.56;7896115;29;19964;-72
2022/05/29 20:21:23;;;;;;;;;;;;;;;12.32;54.82;98846.69;7896784;30;20746;-72
2022/05/29 20:25:25;;;;;;;;;;;;;;;12.25;57.45;98849.47;7894076;30;20024;-72
2022/05/29 20:29:26;;;;;;;;;;;;;;;12.12;57.18;98850.56;7898003;30;19930;-72
2022/05/29 20:33:28;;;;;;;;;;;;;;;12.02;57.15;98850.75;7893212;30;19965;-72
2022/05/29 20:37:29;;;;;;;;;;;;;;;11.88;57.83;98847.56;7894337;30;19980;-72
2022/05/29 20:41:32;;;;;;;;;;;;;;;11.87;57.76;98848.44;7891645;30;19929;-72
2022/05/29 20:45:44;;;;;;;;;;;;;;;11.84;57.79;98852.81;7898009;30;19947;-72
2022/05/29 20:49:45;;;;;;;;;;;;;;;11.86;57.57;98853.69;7894921;30;20007;-72
2022/05/29 20:53:47;;;;;;;;;;;;;;;11.82;58.74;98857.19;7894889;30;19929;-72
2022/05/29 20:57:50;;;;;;;;;;;;;;;11.64;60.39;98850.53;7893901;29;20052;-72
2022/05/29 21:01:51;;;;;;;;;;;;;;;11.45;61.68;98847.41;7900707;30;19929;-72
2022/05/29 21:05:53;;;;;;;;;;;;;;;11.32;62.72;98857.16;7892781;30;19981;-72
2022/05/29 21:09:55;;;;;;;;;;;;;;;11.29;62.44;98852.00;7896079;30;19953;-72
2022/05/29 21:13:56;;;;;;;;;;;;;;;11.29;61.45;98858.94;7893570;29;19938;-72
2022/05/29 21:17:58;;;;;;;;;;;;;;;11.28;60.89;98852.03;7891920;30;20745;-72
2022/05/29 21:21:59;;;;;;;;;;;;;;;11.25;60.93;98845.13;7893346;30;19930;-72
2022/05/29 21:26:02;;;;;;;;;;;;;;;11.22;61.11;98842.59;7891042;30;19940;-72
2022/05/29 21:30:03;;;;;;;;;;;;;;;11.19;61.56;98843.50;7891739;30;19979;-71
2022/05/29 21:34:06;;;;;;;;;;;;;;;11.10;61.71;98842.78;7892776;30;19941;-73
2022/05/29 21:38:07;;;;;;;;;;;;;;;11.09;61.37;98847.09;7895983;30;19941;-73
2022/05/29 21:42:12;;;;;;;;;;;;;;;11.02;61.60;98844.63;7887723;30;19933;-73
2022/05/29 21:46:15;;;;;;;;;;;;;;;10.99;61.49;98848.16;7897173;29;19960;-73
2022/05/29 21:50:17;;;;;;;;;;;;;;;10.97;62.82;98843.84;7894684;30;19933;-73
2022/05/29 21:54:18;;;;;;;;;;;;;;;10.86;63.25;98846.59;7892276;29;20585;-73
2022/05/29 21:58:20;;;;;;;;;;;;;;;10.76;62.93;98847.59;7895740;30;20608;-74
2022/05/29 22:02:21;;;;;;;;;;;;;;;10.72;62.67;98844.19;7893746;29;19929;-73
2022/05/29 22:06:24;;;;;;;;;;;;;;;10.69;62.95;98844.25;7894847;30;19929;-73
2022/05/29 22:10:25;;;;;;;;;;;;;;;10.62;62.15;98849.53;7896118;30;20016;-73
2022/05/29 22:14:26;;;;;;;;;;;;;;;10.58;62.30;98851.28;7909311;29;19973;-73
2022/05/29 22:18:28;;;;;;;;;;;;;;;10.57;62.22;98855.63;7895182;29;19962;-73
2022/05/29 22:22:30;;;;;;;;;;;;;;;10.56;62.09;98845.28;7907511;29;20821;-73
2022/05/29 22:26:32;;;;;;;;;;;;;;;10.56;62.43;98858.25;7891955;30;19968;-73